createdAt,value
2019-04-24T00:01:21.051Z,17.40
2019-04-24T00:04:02.918Z,17.40
2019-04-24T00:06:20.258Z,17.50
2019-04-24T00:08:55.171Z,17.50
2019-04-24T00:11:38.017Z,17.50
2019-04-24T00:14:23.887Z,17.50
2019-04-24T00:16:59.198Z,17.50
2019-04-24T00:19:23.709Z,17.50
2019-04-24T00:21:57.797Z,17.40
2019-04-24T00:24:29.309Z,17.40
2019-04-24T00:32:02.365Z,17.40
2019-04-24T00:34:44.483Z,17.30
2019-04-24T00:37:10.039Z,17.30
2019-04-24T00:39:36.748Z,17.30
2019-04-24T00:44:35.494Z,17.20
2019-04-24T00:47:13.829Z,17.10
2019-04-24T00:49:36.829Z,17.10
2019-04-24T00:52:09.583Z,17.00
2019-04-24T01:02:20.252Z,16.90
2019-04-24T01:05:10.780Z,16.80
2019-04-24T01:07:35.716Z,16.80
2019-04-24T01:18:02.034Z,16.70
2019-04-24T01:23:03.026Z,16.60
2019-04-24T01:28:02.542Z,16.60
2019-04-24T01:36:05.503Z,16.60
2019-04-24T01:38:36.084Z,16.60
2019-04-24T01:41:14.753Z,16.60
2019-04-24T01:43:42.158Z,16.50
2019-04-24T01:46:21.578Z,16.50
2019-04-24T01:48:51.892Z,16.40
2019-04-24T01:51:23.441Z,16.40
2019-04-24T01:58:58.145Z,16.30
2019-04-24T02:04:24.854Z,16.30
2019-04-24T02:06:19.569Z,16.30
2019-04-24T02:08:59.752Z,16.30
2019-04-24T02:14:07.625Z,16.30
2019-04-24T02:19:02.359Z,16.30
2019-04-24T02:21:42.033Z,16.40
2019-04-24T02:24:13.470Z,16.40
2019-04-24T02:29:20.851Z,16.40
2019-04-24T02:31:48.671Z,16.50
2019-04-24T02:34:52.727Z,16.50
2019-04-24T02:37:02.429Z,16.50
2019-04-24T02:42:37.542Z,16.50
2019-04-24T02:45:03.621Z,16.60
2019-04-24T02:57:43.512Z,16.60
2019-04-24T03:05:30.105Z,16.60
2019-04-24T03:10:28.157Z,16.70
2019-04-24T03:13:14.118Z,16.70
2019-04-24T03:46:23.207Z,17.00
2019-04-24T03:51:53.772Z,17.10
2019-04-24T03:53:59.624Z,17.10
2019-04-24T03:56:28.804Z,17.10
2019-04-24T04:01:42.632Z,17.10
2019-04-24T04:04:12.831Z,17.10
2019-04-24T04:11:54.922Z,17.10
2019-04-24T04:14:11.976Z,17.10
2019-04-24T04:19:28.666Z,17.10
2019-04-24T04:24:27.633Z,17.10
2019-04-24T04:29:47.332Z,17.10
2019-04-24T04:32:44.441Z,17.10
2019-04-24T04:40:06.234Z,17.10
2019-04-24T04:42:31.495Z,17.10
2019-04-24T04:44:57.157Z,17.10
2019-04-24T04:50:20.891Z,17.20
2019-04-24T04:57:58.480Z,17.20
2019-04-24T05:00:35.484Z,17.30
2019-04-24T05:03:11.095Z,17.30
2019-04-24T05:08:36.831Z,17.30
2019-04-24T05:10:42.853Z,17.50
2019-04-24T05:13:10.103Z,17.50
2019-04-24T05:15:40.434Z,17.60
2019-04-24T05:18:19.997Z,17.60
2019-04-24T05:28:43.865Z,17.90
2019-04-24T05:31:25.863Z,18.00
2019-04-24T05:33:48.419Z,18.00
2019-04-24T05:36:35.766Z,18.10
2019-04-24T05:39:20.677Z,18.10
2019-04-24T05:41:57.519Z,18.10
2019-04-24T05:46:39.479Z,18.20
2019-04-24T05:49:18.656Z,18.20
2019-04-24T05:51:54.898Z,18.20
2019-04-24T05:54:28.485Z,18.30
2019-04-24T05:57:25.317Z,18.30
2019-04-24T06:02:34.992Z,18.30
2019-04-24T06:04:54.322Z,18.40
2019-04-24T06:08:19.006Z,18.60
2019-04-24T06:15:11.023Z,18.80
2019-04-24T06:17:55.982Z,18.80
2019-04-24T06:20:39.424Z,18.90
2019-04-24T06:22:52.206Z,18.90
2019-04-24T06:25:36.001Z,19.10
2019-04-24T06:32:47.603Z,19.20
2019-04-24T06:38:10.243Z,19.40
2019-04-24T06:43:23.073Z,19.50
2019-04-24T06:45:43.799Z,19.70
2019-04-24T06:48:21.476Z,19.70
2019-04-24T06:53:19.305Z,19.90
2019-04-24T06:56:11.511Z,19.90
2019-04-24T06:58:42.528Z,19.90
2019-04-24T07:01:17.389Z,20.10
2019-04-24T07:06:31.031Z,20.40
2019-04-24T07:19:38.318Z,20.00
2019-04-24T07:24:48.329Z,19.80
2019-04-24T07:27:16.543Z,19.70
2019-04-24T07:29:53.081Z,19.60
2019-04-24T07:32:23.797Z,19.60
2019-04-24T07:37:52.629Z,19.70
2019-04-24T07:40:08.297Z,19.70
2019-04-24T07:42:44.499Z,19.80
2019-04-24T07:47:44.625Z,19.40
2019-04-24T07:50:21.042Z,19.20
2019-04-24T07:55:34.139Z,18.90
2019-04-24T07:57:56.138Z,18.90
2019-04-24T08:03:08.694Z,18.90
2019-04-24T08:05:32.427Z,19.10
2019-04-24T08:08:06.794Z,19.10
2019-04-24T08:13:17.154Z,19.50
2019-04-24T08:18:25.361Z,19.70
2019-04-24T08:20:56.231Z,19.80
2019-04-24T08:31:33.712Z,19.80
2019-04-24T08:36:22.891Z,19.90
2019-04-24T08:39:25.039Z,20.10
2019-04-24T08:41:42.534Z,20.20
2019-04-24T08:44:05.088Z,20.40
2019-04-24T08:49:15.536Z,20.70
2019-04-24T08:56:59.272Z,21.00
2019-04-24T08:59:48.689Z,21.00
2019-04-24T09:02:16.422Z,21.10
2019-04-24T09:07:18.459Z,21.30
2019-04-24T09:10:16.417Z,21.40
2019-04-24T09:15:27.117Z,21.60
2019-04-24T09:17:59.954Z,21.60
2019-04-24T09:20:43.974Z,21.60
2019-04-24T09:28:05.245Z,21.50
2019-04-24T09:30:41.622Z,21.60
2019-04-24T09:33:16.914Z,21.60
2019-04-24T09:38:43.213Z,21.80
2019-04-24T09:46:22.425Z,21.80
2019-04-24T09:51:34.373Z,21.80
2019-04-24T09:54:05.528Z,21.90
2019-04-24T10:01:57.875Z,22.10
2019-04-24T10:07:21.179Z,22.10
2019-04-24T10:09:34.933Z,22.30
2019-04-24T10:12:17.894Z,22.40
2019-04-24T10:14:36.629Z,22.50
2019-04-24T10:19:59.859Z,22.60
2019-04-24T10:22:11.123Z,22.70
2019-04-24T10:24:51.777Z,22.70
2019-04-24T10:27:23.061Z,22.70
2019-04-24T10:30:00.775Z,22.70
2019-04-24T10:32:48.043Z,22.60
2019-04-24T10:35:19.957Z,22.50
2019-04-24T10:38:18.698Z,22.40
2019-04-24T10:40:30.367Z,22.30
2019-04-24T10:43:24.693Z,22.50
2019-04-24T10:46:03.642Z,22.70
2019-04-24T10:48:46.444Z,22.90
2019-04-24T10:53:46.109Z,23.30
2019-04-24T10:56:26.514Z,23.30
2019-04-24T10:58:51.519Z,23.40
2019-04-24T11:01:35.641Z,23.50
2019-04-24T11:04:16.839Z,23.60
2019-04-24T11:07:07.607Z,23.60
2019-04-24T11:09:55.123Z,23.60
2019-04-24T11:12:12.539Z,23.50
2019-04-24T11:17:23.062Z,23.50
2019-04-24T11:20:02.471Z,23.50
2019-04-24T11:22:39.425Z,23.60
2019-04-24T11:25:52.702Z,23.70
2019-04-24T11:28:22.979Z,23.70
2019-04-24T11:30:48.600Z,23.70
2019-04-24T11:36:02.578Z,23.60
2019-04-24T11:38:52.627Z,23.60
2019-04-24T11:41:09.809Z,23.60
2019-04-24T11:43:50.774Z,23.70
2019-04-24T11:46:48.630Z,23.70
2019-04-24T11:49:12.374Z,23.70
2019-04-24T11:51:34.351Z,23.70
2019-04-24T11:53:54.384Z,23.80
2019-04-24T11:56:48.037Z,23.80
2019-04-24T11:58:49.183Z,23.80
2019-04-24T12:09:39.949Z,24.00
2019-04-24T12:11:59.823Z,24.00
2019-04-24T12:14:44.751Z,24.00
2019-04-24T12:17:21.830Z,24.10
2019-04-24T12:22:36.304Z,24.10
2019-04-24T12:25:10.834Z,24.20
2019-04-24T12:27:42.549Z,24.30
2019-04-24T12:30:07.433Z,24.20
2019-04-24T12:32:50.313Z,24.20
2019-04-24T12:48:17.372Z,24.60
2019-04-24T12:50:52.473Z,24.60
2019-04-24T12:53:38.382Z,24.60
2019-04-24T13:01:46.341Z,25.00
2019-04-24T13:04:34.923Z,25.00
2019-04-24T13:06:38.578Z,25.10
2019-04-24T13:09:21.773Z,25.20
2019-04-24T13:11:59.264Z,25.30
2019-04-24T13:14:38.670Z,25.40
2019-04-24T13:17:17.600Z,25.50
2019-04-24T13:21:45.442Z,25.70
2019-04-24T13:24:32.177Z,25.80
2019-04-24T13:27:17.006Z,25.80
2019-04-24T13:30:08.191Z,25.90
2019-04-24T13:32:36.945Z,26.00
2019-04-24T13:35:22.443Z,26.20
2019-04-24T13:38:10.031Z,26.40
2019-04-24T13:40:01.524Z,26.60
2019-04-24T13:42:52.705Z,26.80
2019-04-24T13:47:59.399Z,27.20
2019-04-24T13:50:27.572Z,27.30
2019-04-24T13:55:27.515Z,27.50
2019-04-24T14:05:38.549Z,27.60
2019-04-24T14:08:20.814Z,27.60
2019-04-24T14:11:02.409Z,27.70
2019-04-24T14:15:50.554Z,28.00
2019-04-24T14:20:56.488Z,28.00
2019-04-24T14:23:35.329Z,28.10
2019-04-24T14:28:46.792Z,28.10
2019-04-24T14:41:16.890Z,28.50
2019-04-24T14:44:14.157Z,28.10
2019-04-24T14:46:38.134Z,28.00
2019-04-24T14:49:16.107Z,27.50
2019-04-24T14:51:34.687Z,27.30
2019-04-24T14:56:35.728Z,27.50
2019-04-24T15:01:47.446Z,28.10
2019-04-24T15:06:51.076Z,28.20
2019-04-24T15:09:16.232Z,28.10
2019-04-24T15:12:08.879Z,28.10
2019-04-24T15:22:06.755Z,27.00
2019-04-24T15:26:57.178Z,26.80
2019-04-24T15:32:03.544Z,26.50
2019-04-24T15:34:31.413Z,26.40
2019-04-24T15:37:02.868Z,26.30
2019-04-24T15:42:05.775Z,26.10
2019-04-24T15:47:23.890Z,26.00
2019-04-24T15:51:38.813Z,26.00
2019-04-24T15:54:09.304Z,25.90
2019-04-24T15:56:39.255Z,25.80
2019-04-24T15:59:27.191Z,25.80
2019-04-24T16:02:13.090Z,25.70
2019-04-24T16:04:51.981Z,25.60
2019-04-24T16:06:45.463Z,25.40
2019-04-24T16:09:19.908Z,25.40
2019-04-24T16:11:49.742Z,25.20
2019-04-24T16:14:42.076Z,25.20
2019-04-24T16:17:11.293Z,25.00
2019-04-24T16:19:52.287Z,25.00
2019-04-24T16:24:56.875Z,24.80
2019-04-24T16:27:33.518Z,24.80
2019-04-24T16:37:29.613Z,24.60
2019-04-24T16:45:10.096Z,24.50
2019-04-24T16:48:21.795Z,24.50
2019-04-24T16:53:05.612Z,24.50
2019-04-24T16:55:27.858Z,24.40
2019-04-24T16:58:05.762Z,24.40
2019-04-24T17:00:32.831Z,24.40
2019-04-24T17:05:29.880Z,24.50
2019-04-24T17:08:11.039Z,24.50
2019-04-24T17:10:30.314Z,24.40
2019-04-24T17:18:31.422Z,24.00
2019-04-24T17:23:23.854Z,23.80
2019-04-24T17:26:08.221Z,23.70
2019-04-24T17:31:12.526Z,23.50
2019-04-24T17:33:35.441Z,23.40
2019-04-24T17:38:08.050Z,22.10
2019-04-24T17:40:38.881Z,21.60
2019-04-24T17:43:33.691Z,21.10
2019-04-24T17:48:44.015Z,20.10
2019-04-24T17:56:17.982Z,18.90
2019-04-24T18:00:46.618Z,17.90
2019-04-24T18:03:16.509Z,17.40
2019-04-24T18:05:46.332Z,17.10
2019-04-24T18:08:16.259Z,16.80
2019-04-24T18:10:46.112Z,16.60
2019-04-24T18:13:15.901Z,16.50
2019-04-24T18:15:45.609Z,16.50
2019-04-24T18:18:15.522Z,16.30
2019-04-24T18:20:45.279Z,16.10
2019-04-24T18:23:15.512Z,16.00
2019-04-24T18:25:54.124Z,16.00
2019-04-24T18:28:24.712Z,15.90
2019-04-24T18:30:54.594Z,15.80
2019-04-24T18:33:24.680Z,15.60
2019-04-24T18:35:54.587Z,15.60
2019-04-24T18:38:24.389Z,15.70
2019-04-24T18:40:54.365Z,15.70
2019-04-24T18:43:24.154Z,15.60
2019-04-24T18:45:53.836Z,15.80
2019-04-24T18:48:23.626Z,15.70
2019-04-24T18:50:53.408Z,15.70
2019-04-24T18:53:23.209Z,15.60
2019-04-24T18:55:52.983Z,15.60
2019-04-24T18:58:22.720Z,15.60
2019-04-24T19:00:52.571Z,15.80
2019-04-24T19:03:22.335Z,15.80
2019-04-24T19:05:52.236Z,15.80
2019-04-24T19:08:21.977Z,15.70
2019-04-24T19:10:51.767Z,15.70
2019-04-24T19:13:21.935Z,15.70
2019-04-24T19:15:53.263Z,15.70
2019-04-24T19:18:23.338Z,15.50
2019-04-24T19:20:56.281Z,15.50
2019-04-24T19:23:26.023Z,15.60
2019-04-24T19:25:55.758Z,15.50
2019-04-24T19:28:25.536Z,15.40
2019-04-24T19:30:55.713Z,15.40
2019-04-24T19:33:25.355Z,15.30
2019-04-24T19:35:55.263Z,15.20
2019-04-24T19:38:25.093Z,15.20
2019-04-24T19:40:54.776Z,15.10
2019-04-24T19:43:24.444Z,15.00
2019-04-24T19:45:54.232Z,15.00
2019-04-24T19:48:25.473Z,14.90
2019-04-24T19:50:55.561Z,14.90
2019-04-24T19:53:26.456Z,14.80
2019-04-24T19:55:56.446Z,14.80
2019-04-24T19:58:26.215Z,14.80
2019-04-24T20:00:56.040Z,14.90
2019-04-24T20:03:26.061Z,14.90
2019-04-24T20:05:55.686Z,14.90
2019-04-24T20:08:26.560Z,14.90
2019-04-24T20:11:03.770Z,14.80
2019-04-24T20:13:33.478Z,14.90
2019-04-24T20:16:03.113Z,14.90
2019-04-24T20:18:33.227Z,14.90
2019-04-24T20:21:02.947Z,14.80
2019-04-24T20:23:35.202Z,14.70
2019-04-24T20:26:04.401Z,14.70
2019-04-24T20:28:34.071Z,14.70
2019-04-24T20:31:03.892Z,14.60
2019-04-24T20:33:33.615Z,14.60
2019-04-24T20:36:03.436Z,14.70
2019-04-24T20:38:33.241Z,14.60
2019-04-24T20:41:03.323Z,14.50
2019-04-24T20:43:33.020Z,14.50
2019-04-24T20:46:03.043Z,14.50
2019-04-24T20:48:32.769Z,14.50
2019-04-24T20:51:02.545Z,14.40
2019-04-24T20:53:39.800Z,14.40
2019-04-24T20:56:03.619Z,14.50
2019-04-24T20:58:34.855Z,14.40
2019-04-24T21:01:06.797Z,14.40
2019-04-24T21:03:36.411Z,14.40
2019-04-24T21:06:13.649Z,14.40
2019-04-24T21:08:47.457Z,14.40
2019-04-24T21:11:17.262Z,14.30
2019-04-24T21:13:46.932Z,14.30
2019-04-24T21:16:16.746Z,14.30
2019-04-24T21:18:46.452Z,14.20
2019-04-24T21:21:16.763Z,14.20
2019-04-24T21:23:54.459Z,14.10
2019-04-24T21:26:18.486Z,14.10
2019-04-24T21:28:48.120Z,14.00
2019-04-24T21:31:17.749Z,14.00
2019-04-24T21:33:47.506Z,14.00
2019-04-24T21:36:17.262Z,14.00
2019-04-24T21:38:47.086Z,13.90
2019-04-24T21:41:16.744Z,13.80
2019-04-24T21:43:46.625Z,13.70
2019-04-24T21:46:16.390Z,13.70
2019-04-24T21:48:46.357Z,13.70
2019-04-24T21:51:16.035Z,13.70
2019-04-24T21:53:45.846Z,13.60
2019-04-24T21:56:15.622Z,13.60
2019-04-24T21:58:45.437Z,13.60
2019-04-24T22:01:15.815Z,13.70
2019-04-24T22:03:46.208Z,13.70
2019-04-24T22:06:18.629Z,13.70
2019-04-24T22:08:48.625Z,13.70
2019-04-24T22:11:18.716Z,13.60
2019-04-24T22:13:48.997Z,13.60
2019-04-24T22:16:19.188Z,13.60
2019-04-24T22:18:49.080Z,13.50
2019-04-24T22:21:21.005Z,13.50
2019-04-24T22:24:15.941Z,13.50
2019-04-24T22:26:43.332Z,13.40
2019-04-24T22:29:13.111Z,13.40
2019-04-24T22:31:42.801Z,13.40
2019-04-24T22:34:27.022Z,13.40
2019-04-24T22:36:57.066Z,13.40
2019-04-24T22:39:29.445Z,13.30
2019-04-24T22:41:59.277Z,13.30
2019-04-24T22:44:29.706Z,13.30
2019-04-24T22:46:59.708Z,13.20
2019-04-24T22:49:30.376Z,13.30
2019-04-24T22:52:00.902Z,13.30
2019-04-24T22:54:34.140Z,13.30
2019-04-24T22:57:02.659Z,13.30
2019-04-24T22:59:34.386Z,13.20
2019-04-24T23:02:04.533Z,13.20
2019-04-24T23:04:34.823Z,13.20
2019-04-24T23:07:05.136Z,13.10
2019-04-24T23:09:37.642Z,13.10
2019-04-24T23:12:07.889Z,13.10
2019-04-24T23:14:37.807Z,13.00
2019-04-24T23:17:07.920Z,13.00
2019-04-24T23:19:39.558Z,13.00
2019-04-24T23:22:18.967Z,13.00
2019-04-24T23:24:54.740Z,13.00
2019-04-24T23:27:29.120Z,13.00
2019-04-24T23:30:03.394Z,13.00
2019-04-24T23:32:35.066Z,13.00
2019-04-24T23:35:06.498Z,13.00
2019-04-24T23:37:36.458Z,12.90
2019-04-24T23:40:08.595Z,12.90
2019-04-24T23:42:38.488Z,12.80
2019-04-24T23:45:08.533Z,12.80
2019-04-24T23:47:38.903Z,12.80
2019-04-24T23:50:09.239Z,12.70
2019-04-24T23:52:39.608Z,12.70
2019-04-24T23:55:09.516Z,12.70
2019-04-24T23:57:39.945Z,12.60
